Time;durP1;ratioP1;P1;durP2;ratioP2;P2;SDS_P1;SDS_P2;PMS_P1;PMS_P2;Temp;Humidity;BMP_temperature;BMP_pressure;BME280_temperature;BME280_humidity;BME280_pressure;Samples;Min_cycle;Max_cycle;Signal;HPM_P1;HPM_P2
2022/04/02 00:01:57;;;;;;;;;;;;;;;-144.19;100.00;77945.53;5055381;28;19955;-85
2022/04/02 00:04:24;;;;;;;;;;;;;;;-144.19;100.00;77941.59;5055770;28;19925;-86
2022/04/02 00:06:52;;;;;;;;;;;;;;;-144.19;100.00;77943.56;5054404;28;19936;-86
2022/04/02 00:09:22;;;;;;;;;;;;;;;-144.19;100.00;77937.66;5053444;28;19931;-85
2022/04/02 00:11:51;;;;;;;;;;;;;;;-144.19;100.00;77921.91;5072302;28;20079;-85
2022/04/02 00:14:18;;;;;;;;;;;;;;;-144.19;100.00;77943.56;5049789;23;19987;-82
2022/04/02 00:16:44;;;;;;;;;;;;;;;-144.19;100.00;77961.28;5016643;28;19929;-81
2022/04/02 00:19:11;;;;;;;;;;;;;;;-144.19;100.00;77949.47;5031796;28;20319;-80
2022/04/02 00:21:38;;;;;;;;;;;;;;;-144.19;100.00;77965.22;5017778;28;19925;-80
2022/04/02 00:24:05;;;;;;;;;;;;;;;-144.19;100.00;77965.22;5016079;28;19988;-81
2022/04/02 00:26:31;;;;;;;;;;;;;;;-144.19;100.00;77961.28;5016951;28;19929;-82
2022/04/02 00:28:57;;;;;;;;;;;;;;;-144.19;100.00;77947.50;5017248;28;19925;-80
2022/04/02 00:31:24;;;;;;;;;;;;;;;-144.19;100.00;77961.28;5016697;28;20519;-81
2022/04/02 00:33:50;;;;;;;;;;;;;;;-144.19;100.00;77949.47;5015478;28;19937;-81
2022/04/02 00:36:18;;;;;;;;;;;;;;;-144.19;100.00;77949.47;5017367;28;20515;-82
2022/04/02 00:38:44;;;;;;;;;;;;;;;-144.19;100.00;77945.53;5018041;28;19997;-81
2022/04/02 00:41:13;;;;;;;;;;;;;;;-144.19;100.00;77963.25;5018269;28;19931;-82
2022/04/02 00:43:43;;;;;;;;;;;;;;;-144.19;100.00;77939.63;5033740;28;19925;-81
2022/04/02 00:46:10;;;;;;;;;;;;;;;-144.19;100.00;77957.34;5017723;28;19972;-81
2022/04/02 00:48:37;;;;;;;;;;;;;;;-144.19;100.00;77965.22;5017037;28;19930;-81
2022/04/02 00:51:07;;;;;;;;;;;;;;;-144.19;100.00;77957.34;5015416;28;19926;-82
2022/04/02 00:53:36;;;;;;;;;;;;;;;-144.19;100.00;77965.22;5014847;28;19925;-82
2022/04/02 00:56:02;;;;;;;;;;;;;;;-144.19;100.00;77965.22;5016979;28;20351;-80
2022/04/02 00:58:29;;;;;;;;;;;;;;;-144.19;100.00;77965.22;5016670;28;19929;-82
2022/04/02 01:00:55;;;;;;;;;;;;;;;-144.19;100.00;77965.22;5014883;28;19944;-81
2022/04/02 01:03:22;;;;;;;;;;;;;;;-144.19;100.00;77973.09;5015013;28;20372;-81
2022/04/02 01:05:48;;;;;;;;;;;;;;;-144.19;100.00;77969.16;5016492;28;19948;-83
2022/04/02 01:08:14;;;;;;;;;;;;;;;-144.19;100.00;77969.16;5016106;28;19925;-81
2022/04/02 01:10:41;;;;;;;;;;;;;;;-144.19;100.00;77969.16;5015750;28;19926;-81
2022/04/02 01:13:08;;;;;;;;;;;;;;;-144.19;100.00;77977.03;5013193;28;19925;-82
2022/04/02 01:15:35;;;;;;;;;;;;;;;-144.19;100.00;77969.16;5016469;28;19980;-81
2022/04/02 01:18:02;;;;;;;;;;;;;;;-144.19;100.00;77977.03;5015894;28;19925;-81
2022/04/02 01:20:29;;;;;;;;;;;;;;;-144.19;100.00;77977.03;5014875;28;19925;-81
2022/04/02 01:22:56;;;;;;;;;;;;;;;-144.19;100.00;77977.03;5014937;28;20016;-80
2022/04/02 01:25:23;;;;;;;;;;;;;;;-144.19;100.00;77969.16;5015789;28;19926;-81
2022/04/02 01:27:49;;;;;;;;;;;;;;;-144.19;100.00;77988.84;5015509;28;19932;-82
2022/04/02 01:30:15;;;;;;;;;;;;;;;-144.19;100.00;77988.84;5013840;28;19940;-80
2022/04/02 01:32:42;;;;;;;;;;;;;;;-144.19;100.00;77986.88;5015368;28;19944;-80
2022/04/02 01:35:09;;;;;;;;;;;;;;;-144.19;100.00;77965.22;5015879;28;19925;-83
2022/04/02 01:37:36;;;;;;;;;;;;;;;-144.19;100.00;77990.81;5016213;28;19926;-83
2022/04/02 01:40:04;;;;;;;;;;;;;;;-144.19;100.00;77990.81;5029775;28;19937;-81
2022/04/02 01:42:30;;;;;;;;;;;;;;;-144.19;100.00;77986.88;5014235;28;19952;-82
2022/04/02 01:44:57;;;;;;;;;;;;;;;-144.19;100.00;77996.72;5015399;28;19925;-83
2022/04/02 01:47:23;;;;;;;;;;;;;;;-144.19;100.00;77984.91;5013923;28;20279;-81
2022/04/02 01:49:50;;;;;;;;;;;;;;;-144.19;100.00;77984.91;5015241;28;19931;-84
2022/04/02 01:52:17;;;;;;;;;;;;;;;-144.19;100.00;77984.91;5012524;28;19940;-82
2022/04/02 01:54:44;;;;;;;;;;;;;;;-144.19;100.00;77977.03;5014204;28;20303;-81
2022/04/02 01:57:10;;;;;;;;;;;;;;;-144.19;100.00;77980.97;5013738;28;19926;-81
2022/04/02 01:59:39;;;;;;;;;;;;;;;-144.19;100.00;77988.84;5013876;28;20384;-82
2022/04/02 02:02:09;;;;;;;;;;;;;;;-144.19;100.00;77992.78;5013297;28;19932;-81
2022/04/02 02:04:36;;;;;;;;;;;;;;;-144.19;100.00;77992.78;5014370;28;19925;-82
2022/04/02 02:07:04;;;;;;;;;;;;;;;-144.19;100.00;77998.69;5012869;28;20011;-80
2022/04/02 02:09:30;;;;;;;;;;;;;;;-144.19;100.00;78002.63;5029206;28;19925;-82
2022/04/02 02:11:56;;;;;;;;;;;;;;;-144.19;100.00;77977.03;5013185;28;19948;-82
2022/04/02 02:14:23;;;;;;;;;;;;;;;-144.19;100.00;78000.66;5012242;28;20058;-82
2022/04/02 02:16:49;;;;;;;;;;;;;;;-144.19;100.00;78004.59;5014114;28;19925;-81
2022/04/02 02:19:16;;;;;;;;;;;;;;;-144.19;100.00;78012.47;5013161;28;20403;-82
2022/04/02 02:21:42;;;;;;;;;;;;;;;-144.19;100.00;78008.53;5013180;28;19925;-81
2022/04/02 02:24:09;;;;;;;;;;;;;;;-144.19;100.00;78008.53;5013407;28;19971;-83
2022/04/02 02:26:35;;;;;;;;;;;;;;;-144.19;100.00;78012.47;5014788;28;19953;-81
2022/04/02 02:29:04;;;;;;;;;;;;;;;-144.19;100.00;78008.53;5029561;28;20339;-80
2022/04/02 02:31:31;;;;;;;;;;;;;;;-144.19;100.00;78018.38;5014361;28;20388;-81
2022/04/02 02:36:43;;;;;;;;;;;;;;;-144.19;100.00;78020.34;5013884;28;19926;-82
2022/04/02 02:39:09;;;;;;;;;;;;;;;-144.19;100.00;78020.34;5014155;28;20384;-81
2022/04/02 02:41:36;;;;;;;;;;;;;;;-144.19;100.00;78004.59;5013483;28;19926;-82
2022/04/02 02:44:02;;;;;;;;;;;;;;;-144.19;100.00;78032.19;5013400;28;19925;-79
2022/04/02 02:46:29;;;;;;;;;;;;;;;-144.19;100.00;78026.28;5013635;28;19936;-80
2022/04/02 02:48:55;;;;;;;;;;;;;;;-144.19;100.00;78030.22;5011600;28;19932;-80
2022/04/02 02:51:22;;;;;;;;;;;;;;;-144.19;100.00;78020.34;5026891;28;19929;-79
2022/04/02 02:53:48;;;;;;;;;;;;;;;-144.19;100.00;78036.13;5011435;28;20172;-81
2022/04/02 02:56:14;;;;;;;;;;;;;;;-144.19;100.00;78044.00;5013318;28;19926;-79
2022/04/02 02:58:41;;;;;;;;;;;;;;;-144.19;100.00;78036.13;5013975;28;19944;-78
2022/04/02 03:01:07;;;;;;;;;;;;;;;-144.19;100.00;78034.16;5027597;28;19925;-81
2022/04/02 03:03:34;;;;;;;;;;;;;;;-144.19;100.00;78024.31;5012878;28;20386;-79
2022/04/02 03:06:00;;;;;;;;;;;;;;;-144.19;100.00;78044.00;5013411;28;20316;-84
2022/04/02 03:08:26;;;;;;;;;;;;;;;-144.19;100.00;78042.03;5030352;28;19937;-79
2022/04/02 03:10:54;;;;;;;;;;;;;;;-144.19;100.00;78047.94;5013299;28;20074;-80
2022/04/02 03:13:20;;;;;;;;;;;;;;;-144.19;100.00;78051.88;5013540;28;19963;-80
2022/04/02 03:15:47;;;;;;;;;;;;;;;-144.19;100.00;78032.19;5015140;28;19926;-80
2022/04/02 03:18:13;;;;;;;;;;;;;;;-144.19;100.00;78034.16;5013796;28;19936;-79
2022/04/02 03:20:39;;;;;;;;;;;;;;;-144.19;100.00;78051.88;5028179;28;19929;-79
2022/04/02 03:23:05;;;;;;;;;;;;;;;-144.19;100.00;78040.06;5011115;28;20279;-79
2022/04/02 03:25:32;;;;;;;;;;;;;;;-144.19;100.00;78053.84;5013364;28;19929;-80
2022/04/02 03:27:58;;;;;;;;;;;;;;;-144.19;100.00;78049.91;5014525;28;19925;-82
2022/04/02 03:30:25;;;;;;;;;;;;;;;-144.19;100.00;78067.63;5012534;28;19925;-80
2022/04/02 03:32:52;;;;;;;;;;;;;;;-144.19;100.00;78055.81;5013738;28;19932;-80
2022/04/02 03:35:19;;;;;;;;;;;;;;;-144.19;100.00;78063.69;5012407;28;19929;-79
2022/04/02 03:37:47;;;;;;;;;;;;;;;-144.19;100.00;78067.63;5013002;28;19951;-83
2022/04/02 03:40:15;;;;;;;;;;;;;;;-144.19;100.00;78061.72;5011592;28;20247;-79
2022/04/02 03:42:44;;;;;;;;;;;;;;;-144.19;100.00;78040.06;5013032;28;20364;-81
2022/04/02 03:45:11;;;;;;;;;;;;;;;-144.19;100.00;78065.66;5013092;28;19932;-79
2022/04/02 03:47:38;;;;;;;;;;;;;;;-144.19;100.00;78071.56;5014854;28;19944;-82
2022/04/02 03:50:05;;;;;;;;;;;;;;;-144.19;100.00;78075.50;5013087;28;19933;-80
2022/04/02 03:52:32;;;;;;;;;;;;;;;-144.19;100.00;78087.31;5028516;28;19930;-81
2022/04/02 03:54:58;;;;;;;;;;;;;;;-144.19;100.00;78073.53;5012251;28;20277;-80
2022/04/02 03:57:25;;;;;;;;;;;;;;;-144.19;100.00;78089.28;5028855;28;19941;-82
2022/04/02 03:59:51;;;;;;;;;;;;;;;-144.19;100.00;78097.16;5013501;28;19925;-81
2022/04/02 04:02:17;;;;;;;;;;;;;;;-144.19;100.00;78099.13;5027363;28;19936;-81
2022/04/02 04:04:44;;;;;;;;;;;;;;;-144.19;100.00;78107.00;5012865;28;20324;-81
2022/04/02 04:07:10;;;;;;;;;;;;;;;-144.19;100.00;78101.09;5013288;28;19925;-80
2022/04/02 04:09:37;;;;;;;;;;;;;;;-144.19;100.00;78116.84;5014229;28;19926;-81
2022/04/02 04:12:03;;;;;;;;;;;;;;;-144.19;100.00;78093.22;5028900;28;19977;-80
2022/04/02 04:14:30;;;;;;;;;;;;;;;-144.19;100.00;78110.94;5013309;28;19932;-80
2022/04/02 04:16:56;;;;;;;;;;;;;;;-144.19;100.00;78120.78;5013065;28;19929;-80
2022/04/02 04:19:23;;;;;;;;;;;;;;;-144.19;100.00;78107.00;5013846;28;19937;-81
2022/04/02 04:21:49;;;;;;;;;;;;;;;-144.19;100.00;78103.06;5027610;28;20400;-80
2022/04/02 04:24:15;;;;;;;;;;;;;;;-144.19;100.00;78107.00;5013550;28;19947;-81
2022/04/02 04:26:42;;;;;;;;;;;;;;;-144.19;100.00;78120.78;5017719;28;20467;-81
2022/04/02 04:29:09;;;;;;;;;;;;;;;-144.19;100.00;78107.00;5020213;28;20316;-82
2022/04/02 04:31:36;;;;;;;;;;;;;;;-144.19;100.00;78118.81;5017237;28;19929;-81
2022/04/02 04:34:03;;;;;;;;;;;;;;;-144.19;100.00;78120.78;5016936;28;20423;-83
2022/04/02 04:36:29;;;;;;;;;;;;;;;-144.19;100.00;78114.88;5019321;28;19936;-82
2022/04/02 04:38:57;;;;;;;;;;;;;;;-144.19;100.00;78112.91;5017493;28;19926;-81
2022/04/02 04:41:27;;;;;;;;;;;;;;;-144.19;100.00;78095.19;5018001;28;19961;-81
2022/04/02 04:43:53;;;;;;;;;;;;;;;-144.19;100.00;78118.81;5016635;28;19931;-82
2022/04/02 04:46:20;;;;;;;;;;;;;;;-144.19;100.00;78118.81;5016297;28;19932;-80
2022/04/02 04:48:46;;;;;;;;;;;;;;;-144.19;100.00;78120.78;5018009;28;19933;-78
2022/04/02 04:51:13;;;;;;;;;;;;;;;-144.19;100.00;78124.72;5016776;28;19935;-80
2022/04/02 04:53:40;;;;;;;;;;;;;;;-144.19;100.00;78130.63;5016716;28;19925;-79
2022/04/02 04:56:07;;;;;;;;;;;;;;;-144.19;100.00;78130.63;5015789;28;20338;-79
2022/04/02 04:58:34;;;;;;;;;;;;;;;-144.19;100.00;78138.50;5038101;28;19926;-83
2022/04/02 05:01:00;;;;;;;;;;;;;;;-144.19;100.00;78144.41;5016063;28;19926;-81
2022/04/02 05:03:27;;;;;;;;;;;;;;;-144.19;100.00;78140.47;5030541;28;19931;-81
2022/04/02 05:05:54;;;;;;;;;;;;;;;-144.19;100.00;78140.47;5015593;28;20012;-81
2022/04/02 05:08:21;;;;;;;;;;;;;;;-144.19;100.00;78138.50;5017168;28;20422;-82
2022/04/02 05:10:48;;;;;;;;;;;;;;;-144.19;100.00;78130.63;5031088;28;19991;-80
2022/04/02 05:13:15;;;;;;;;;;;;;;;-144.19;100.00;78140.47;5014171;28;19929;-81
2022/04/02 05:15:42;;;;;;;;;;;;;;;-144.19;100.00;78138.50;5015687;28;19930;-82
2022/04/02 05:18:09;;;;;;;;;;;;;;;-144.19;100.00;78140.47;5016246;28;20450;-81
2022/04/02 05:20:37;;;;;;;;;;;;;;;-144.19;100.00;78150.31;5014776;28;20376;-80
2022/04/02 05:23:04;;;;;;;;;;;;;;;-144.19;100.00;78134.56;5014980;28;20346;-81
2022/04/02 05:25:33;;;;;;;;;;;;;;;-144.19;100.00;78138.50;5014582;28;19937;-80
2022/04/02 05:28:00;;;;;;;;;;;;;;;-144.19;100.00;78134.56;5029949;28;19925;-79
2022/04/02 05:30:29;;;;;;;;;;;;;;;-144.19;100.00;78122.75;5014839;28;19925;-80
2022/04/02 05:32:55;;;;;;;;;;;;;;;-144.19;100.00;78140.47;5013460;28;19925;-79
2022/04/02 05:35:22;;;;;;;;;;;;;;;-144.19;100.00;78150.31;5014438;28;19926;-79
2022/04/02 05:37:54;;;;;;;;;;;;;;;-144.19;100.00;78140.47;5013659;28;20400;-79
2022/04/02 05:40:20;;;;;;;;;;;;;;;-144.19;100.00;78138.50;5013284;28;19925;-81
2022/04/02 05:42:47;;;;;;;;;;;;;;;-144.19;100.00;78140.47;5014059;28;19938;-81
2022/04/02 05:45:15;;;;;;;;;;;;;;;-144.19;100.00;78152.28;5015081;28;19936;-81
2022/04/02 05:47:41;;;;;;;;;;;;;;;-144.19;100.00;78138.50;5014942;28;19964;-82
2022/04/02 05:50:08;;;;;;;;;;;;;;;-144.19;100.00;78132.59;5014605;28;19926;-81
2022/04/02 05:52:54;;;;;;;;;;;;;;;-144.19;100.00;78138.50;5014266;28;19952;-80
2022/04/02 05:55:21;;;;;;;;;;;;;;;-144.19;100.00;78156.22;5030135;28;19932;-81
2022/04/02 05:57:48;;;;;;;;;;;;;;;-144.19;100.00;78150.31;5015053;28;19926;-80
2022/04/02 06:00:16;;;;;;;;;;;;;;;-144.19;100.00;78136.53;5012495;28;19925;-79
2022/04/02 06:02:43;;;;;;;;;;;;;;;-144.19;100.00;78142.44;5011697;28;19926;-79
2022/04/02 06:05:10;;;;;;;;;;;;;;;-144.19;100.00;78158.19;5014090;28;20023;-80
2022/04/02 06:07:37;;;;;;;;;;;;;;;-144.19;100.00;78158.19;5014761;28;19936;-80
2022/04/02 06:10:04;;;;;;;;;;;;;;;-144.19;100.00;78162.13;5014444;28;19933;-81
2022/04/02 06:12:30;;;;;;;;;;;;;;;-144.19;100.00;78154.25;5013009;28;19926;-81
2022/04/02 06:14:57;;;;;;;;;;;;;;;-144.19;100.00;78158.19;5056509;23;19963;-85
2022/04/02 06:17:23;;;;;;;;;;;;;;;-144.19;100.00;78162.13;5078957;28;19925;-84
2022/04/02 06:19:50;;;;;;;;;;;;;;;-144.19;100.00;78170.00;5082531;28;19928;-83
2022/04/02 06:22:16;;;;;;;;;;;;;;;-144.19;100.00;78138.50;5072108;28;19928;-84
2022/04/02 06:24:43;;;;;;;;;;;;;;;-144.19;100.00;78142.44;5083913;28;19924;-85
2022/04/02 06:27:15;;;;;;;;;;;;;;;-144.19;100.00;78146.38;5081278;28;20162;-86
2022/04/02 06:29:41;;;;;;;;;;;;;;;-144.19;100.00;78150.31;5057580;28;20267;-87
2022/04/02 06:32:08;;;;;;;;;;;;;;;-144.19;100.00;78130.63;5079726;28;19931;-85
2022/04/02 06:34:34;;;;;;;;;;;;;;;-144.19;100.00;78146.38;5079582;28;19935;-86
2022/04/02 06:37:00;;;;;;;;;;;;;;;-144.19;100.00;78136.53;5058794;28;19931;-86
2022/04/02 06:39:27;;;;;;;;;;;;;;;-144.19;100.00;78162.13;5078850;28;19935;-86
2022/04/02 06:41:53;;;;;;;;;;;;;;;-144.19;100.00;78160.16;5082484;28;20003;-88
2022/04/02 06:44:20;;;;;;;;;;;;;;;-144.19;100.00;78162.13;5070759;28;19935;-85
2022/04/02 06:46:46;;;;;;;;;;;;;;;-144.19;100.00;78144.41;5055577;28;19927;-86
2022/04/02 06:49:12;;;;;;;;;;;;;;;-144.19;100.00;78158.19;5061760;28;20067;-87
2022/04/02 06:51:39;;;;;;;;;;;;;;;-144.19;100.00;78148.34;5050238;28;19955;-85
2022/04/02 06:54:06;;;;;;;;;;;;;;;-144.19;100.00;78134.56;5068698;28;19984;-83
2022/04/02 06:56:32;;;;;;;;;;;;;;;-144.19;100.00;78158.19;5067195;28;19946;-84
2022/04/02 06:58:59;;;;;;;;;;;;;;;-144.19;100.00;78134.56;5059106;28;19962;-86
2022/04/02 07:01:25;;;;;;;;;;;;;;;-144.19;100.00;78130.63;5072868;28;20015;-85
2022/04/02 07:03:52;;;;;;;;;;;;;;;-144.19;100.00;78134.56;5071664;28;19939;-85
2022/04/02 07:06:18;;;;;;;;;;;;;;;-144.19;100.00;78134.56;5047823;28;19932;-85
2022/04/02 07:08:45;;;;;;;;;;;;;;;-144.19;100.00;78138.50;5063157;28;19931;-84
2022/04/02 07:11:11;;;;;;;;;;;;;;;-144.19;100.00;78112.91;5064250;28;20015;-84
2022/04/02 07:13:37;;;;;;;;;;;;;;;-144.19;100.00;78107.00;5064346;28;19935;-84
2022/04/02 07:16:05;;;;;;;;;;;;;;;-144.19;100.00;78122.75;5062914;28;22318;-85
2022/04/02 07:18:32;;;;;;;;;;;;;;;-144.19;100.00;78107.00;5051074;28;19964;-85
2022/04/02 07:21:00;;;;;;;;;;;;;;;-144.19;100.00;78114.88;5045421;28;19978;-86
2022/04/02 07:23:27;;;;;;;;;;;;;;;-144.19;100.00;78083.38;5063397;28;19935;-85
2022/04/02 07:25:54;;;;;;;;;;;;;;;-144.19;100.00;78101.09;5053335;28;20478;-84
2022/04/02 07:28:21;;;;;;;;;;;;;;;-144.19;100.00;78112.91;5062772;28;19947;-84
2022/04/02 07:30:47;;;;;;;;;;;;;;;-144.19;100.00;78126.69;5044756;28;19924;-85
2022/04/02 07:33:14;;;;;;;;;;;;;;;-144.19;100.00;78087.31;5064118;28;19932;-86
2022/04/02 07:35:44;;;;;;;;;;;;;;;-144.19;100.00;78103.06;5042530;28;20019;-84
2022/04/02 07:38:16;;;;;;;;;;;;;;;-144.19;100.00;78093.22;5047159;28;19929;-86
2022/04/02 07:40:49;;;;;;;;;;;;;;;-144.19;100.00;78095.19;5053538;28;19991;-86
2022/04/02 07:43:24;;;;;;;;;;;;;;;-144.19;100.00;78071.56;5049019;28;19935;-86
2022/04/02 07:46:04;;;;;;;;;;;;;;;-144.19;100.00;78067.63;5059087;28;19935;-87
2022/04/02 07:48:32;;;;;;;;;;;;;;;-144.19;100.00;78063.69;5062382;28;19981;-87
2022/04/02 07:50:59;;;;;;;;;;;;;;;-144.19;100.00;78059.75;5035745;28;19935;-85
2022/04/02 07:53:28;;;;;;;;;;;;;;;-144.19;100.00;78065.66;5037690;28;19925;-84
2022/04/02 07:55:56;;;;;;;;;;;;;;;-144.19;100.00;78063.69;5059383;28;19932;-85
2022/04/02 07:58:27;;;;;;;;;;;;;;;-144.19;100.00;78040.06;5050731;28;19982;-85
2022/04/02 08:00:54;;;;;;;;;;;;;;;-144.19;100.00;78044.00;5065229;28;19971;-85
2022/04/02 08:03:23;;;;;;;;;;;;;;;-144.19;100.00;78051.88;5078557;28;19924;-86
2022/04/02 08:05:49;;;;;;;;;;;;;;;-144.19;100.00;78051.88;5076934;28;20198;-87
2022/04/02 08:08:16;;;;;;;;;;;;;;;-144.19;100.00;78059.75;5078706;28;20019;-88
2022/04/02 08:10:46;;;;;;;;;;;;;;;-144.19;100.00;78047.94;5065776;28;19971;-85
2022/04/02 08:13:13;;;;;;;;;;;;;;;-144.19;100.00;78032.19;5082602;28;19985;-85
2022/04/02 08:15:40;;;;;;;;;;;;;;;-144.19;100.00;78040.06;5083364;28;19925;-84
2022/04/02 08:18:07;;;;;;;;;;;;;;;-144.19;100.00;78016.41;5090091;28;20384;-86
2022/04/02 08:20:33;;;;;;;;;;;;;;;-144.19;100.00;78018.38;5062057;28;19924;-84
2022/04/02 08:23:01;;;;;;;;;;;;;;;-144.19;100.00;78044.00;5079008;28;19934;-84
2022/04/02 08:25:27;;;;;;;;;;;;;;;-144.19;100.00;78028.22;5083309;28;19938;-84
2022/04/02 08:27:55;;;;;;;;;;;;;;;-144.19;100.00;78004.59;5087618;28;19924;-84
2022/04/02 08:30:30;;;;;;;;;;;;;;;-144.19;100.00;77984.91;5070698;28;19931;-86
2022/04/02 08:32:56;;;;;;;;;;;;;;;-144.19;100.00;77979.00;5091525;28;19984;-86
2022/04/02 08:35:30;;;;;;;;;;;;;;;-144.19;100.00;78004.59;5068307;28;20387;-83
2022/04/02 08:38:12;;;;;;;;;;;;;;;-144.19;100.00;78036.13;5038957;28;19925;-86
2022/04/02 08:41:04;;;;;;;;;;;;;;;-144.19;100.00;77992.78;5062703;28;19929;-85
2022/04/02 08:43:32;;;;;;;;;;;;;;;-144.19;100.00;77979.00;5056983;28;19924;-86
2022/04/02 08:46:16;;;;;;;;;;;;;;;-144.19;100.00;77975.06;5068670;28;19995;-84
2022/04/02 08:48:56;;;;;;;;;;;;;;;-144.19;100.00;77980.97;5039280;28;20347;-86
2022/04/02 08:51:42;;;;;;;;;;;;;;;-144.19;100.00;77969.16;5046791;28;19928;-84
2022/04/02 08:54:25;;;;;;;;;;;;;;;-144.19;100.00;77937.66;5071338;28;19963;-84
2022/04/02 08:56:59;;;;;;;;;;;;;;;-144.19;100.00;77935.69;5070500;28;19931;-84
2022/04/02 08:59:33;;;;;;;;;;;;;;;-144.19;100.00;77939.63;5064203;28;19924;-84
2022/04/02 09:02:25;;;;;;;;;;;;;;;-144.19;100.00;77963.25;5059673;28;19964;-83
2022/04/02 09:05:08;;;;;;;;;;;;;;;-144.19;100.00;77965.22;5038481;28;19931;-84
2022/04/02 09:08:07;;;;;;;;;;;;;;;-144.19;100.00;77957.34;5062271;28;19974;-84
2022/04/02 09:10:45;;;;;;;;;;;;;;;-144.19;100.00;77955.38;5045325;28;19925;-85
2022/04/02 09:13:26;;;;;;;;;;;;;;;-144.19;100.00;77931.75;5083313;28;19925;-85
2022/04/02 09:16:01;;;;;;;;;;;;;;;-144.19;100.00;77894.34;5085145;28;19924;-84
2022/04/02 09:18:28;;;;;;;;;;;;;;;-144.19;100.00;77890.41;5066221;28;19974;-86
2022/04/02 09:21:00;;;;;;;;;;;;;;;-144.19;100.00;77882.53;5060288;28;19932;-84
2022/04/02 09:23:39;;;;;;;;;;;;;;;-144.19;100.00;77894.34;5053421;28;19929;-85
2022/04/02 09:26:22;;;;;;;;;;;;;;;-144.19;100.00;77914.03;5059598;28;20004;-82
2022/04/02 09:29:04;;;;;;;;;;;;;;;-144.19;100.00;77882.53;5073806;28;19980;-85
2022/04/02 09:31:42;;;;;;;;;;;;;;;-144.19;100.00;77864.81;5071537;28;19982;-85
2022/04/02 09:34:31;;;;;;;;;;;;;;;-144.19;100.00;77866.78;5075990;28;20383;-85
2022/04/02 09:36:59;;;;;;;;;;;;;;;-144.19;96.68;77890.41;5077638;28;19928;-84
2022/04/02 09:39:46;;;;;;;;;;;;;;;-144.19;100.00;77862.84;5076433;28;20015;-84
2022/04/02 09:42:15;;;;;;;;;;;;;;;-144.19;89.35;77886.47;5075321;28;20399;-84
2022/04/02 09:44:49;;;;;;;;;;;;;;;-144.19;90.05;77862.84;5057411;28;19936;-83
2022/04/02 09:47:35;;;;;;;;;;;;;;;-144.19;84.97;77856.94;5074128;28;19932;-83
2022/04/02 09:50:09;;;;;;;;;;;;;;;-144.19;79.05;77876.63;5075347;28;20007;-83
2022/04/02 09:52:36;;;;;;;;;;;;;;;-144.19;82.34;77851.03;5074870;28;19931;-84
2022/04/02 09:55:11;;;;;;;;;;;;;;;-144.19;86.27;77831.31;5061615;28;19925;-85
2022/04/02 09:58:00;;;;;;;;;;;;;;;-144.19;79.33;77847.09;5072040;28;19925;-82
2022/04/02 10:00:34;;;;;;;;;;;;;;;-144.19;76.56;77843.13;5028369;28;19983;-83
2022/04/02 10:03:05;;;;;;;;;;;;;;;-144.19;70.22;77813.59;5036325;28;20194;-84
2022/04/02 10:05:35;;;;;;;;;;;;;;;-144.19;68.46;77833.28;5038203;28;20478;-82
2022/04/02 10:08:06;;;;;;;;;;;;;;;-144.19;69.58;77823.44;5054710;28;19956;-82
2022/04/02 10:10:33;;;;;;;;;;;;;;;-144.19;70.06;77821.47;5055409;28;19932;-83
2022/04/02 10:13:02;;;;;;;;;;;;;;;-144.19;72.17;77760.44;5055966;28;19929;-83
2022/04/02 10:15:30;;;;;;;;;;;;;;;-144.19;70.93;77772.25;5054801;28;19952;-82
2022/04/02 10:18:01;;;;;;;;;;;;;;;-144.19;72.03;77726.97;5047300;28;20040;-82
2022/04/02 10:20:29;;;;;;;;;;;;;;;-144.19;65.41;77725.00;5075221;28;20310;-83
2022/04/02 10:23:02;;;;;;;;;;;;;;;-144.19;60.12;77705.31;5055627;28;19947;-83
2022/04/02 10:25:29;;;;;;;;;;;;;;;-144.19;56.12;77756.50;5075627;28;19935;-83
2022/04/02 10:27:55;;;;;;;;;;;;;;;-144.19;56.03;77713.19;5057711;28;19993;-87
2022/04/02 10:30:24;;;;;;;;;;;;;;;-144.19;52.53;77717.13;5071901;28;19925;-83
2022/04/02 10:32:57;;;;;;;;;;;;;;;-144.19;56.60;77654.13;5061154;28;20377;-84
2022/04/02 10:35:26;;;;;;;;;;;;;;;-144.19;53.81;77583.25;5067760;28;19951;-83
2022/04/02 10:38:04;;;;;;;;;;;;;;;-144.19;50.62;77652.16;5072312;28;19924;-81
2022/04/02 10:40:31;;;;;;;;;;;;;;;-144.19;55.17;77581.28;5068236;28;19948;-85
2022/04/02 10:43:06;;;;;;;;;;;;;;;-144.19;53.85;77555.69;5054529;28;20528;-83
2022/04/02 10:45:37;;;;;;;;;;;;;;;-144.19;52.25;77547.78;5058055;28;20383;-85
2022/04/02 10:48:10;;;;;;;;;;;;;;;-144.19;53.15;77518.25;5064227;28;19924;-84
2022/04/02 10:50:38;;;;;;;;;;;;;;;-144.19;49.46;77516.28;5077559;28;20314;-83
2022/04/02 10:53:05;;;;;;;;;;;;;;;-144.19;49.61;77555.69;5054420;28;19925;-81
2022/04/02 10:55:32;;;;;;;;;;;;;;;-144.19;47.14;77571.44;5075000;28;19970;-83
2022/04/02 10:57:59;;;;;;;;;;;;;;;-144.19;47.97;77486.75;5067585;28;19925;-83
2022/04/02 11:00:29;;;;;;;;;;;;;;;-144.19;51.65;77421.78;5060442;28;19924;-84
2022/04/02 11:03:01;;;;;;;;;;;;;;;-144.19;47.10;77471.00;5064221;28;20404;-84
2022/04/02 11:05:29;;;;;;;;;;;;;;;-144.19;46.35;77443.44;5047809;28;19929;-84
2022/04/02 11:08:04;;;;;;;;;;;;;;;-144.19;43.79;77417.84;5067800;28;19956;-85
2022/04/02 11:10:33;;;;;;;;;;;;;;;-144.19;43.06;77465.09;5037582;28;20379;-83
2022/04/02 11:13:01;;;;;;;;;;;;;;;-144.19;43.07;77433.59;5037438;28;20011;-84
2022/04/02 11:15:27;;;;;;;;;;;;;;;-144.19;43.52;77532.03;5055319;28;20348;-81
2022/04/02 11:17:59;;;;;;;;;;;;;;;-144.19;45.64;77545.84;5070854;28;20011;-85
2022/04/02 11:20:30;;;;;;;;;;;;;;;-144.19;45.53;77599.00;5051843;28;19928;-82
2022/04/02 11:23:23;;;;;;;;;;;;;;;-144.19;46.78;77599.00;5051174;28;20000;-85
2022/04/02 11:26:02;;;;;;;;;;;;;;;-144.19;49.19;77583.25;5048005;28;19932;-83
2022/04/02 11:28:52;;;;;;;;;;;;;;;-144.19;50.12;77402.09;5074983;28;19925;-83
2022/04/02 11:31:29;;;;;;;;;;;;;;;-144.19;46.75;77282.00;5071366;28;19924;-82
2022/04/02 11:33:57;;;;;;;;;;;;;;;-144.19;44.67;77354.84;5072741;28;19955;-83
2022/04/02 11:36:42;;;;;;;;;;;;;;;-144.19;45.66;77547.78;5075802;28;19931;-82
2022/04/02 11:39:18;;;;;;;;;;;;;;;-144.19;49.47;77535.97;5076425;28;19946;-84
2022/04/02 11:41:47;;;;;;;;;;;;;;;-144.19;50.11;77587.19;5075229;28;19931;-83
2022/04/02 11:44:14;;;;;;;;;;;;;;;-144.19;54.36;77581.28;5075226;28;19925;-84
2022/04/02 11:46:50;;;;;;;;;;;;;;;-144.19;54.74;77626.56;5074372;28;19924;-84
2022/04/02 11:49:31;;;;;;;;;;;;;;;-144.19;50.71;77677.75;5092042;28;19924;-81
2022/04/02 11:52:16;;;;;;;;;;;;;;;-144.19;52.40;77683.66;5073694;28;19939;-82
2022/04/02 11:54:52;;;;;;;;;;;;;;;-144.19;52.63;77711.22;5092347;28;19912;-85
2022/04/02 11:57:20;;;;;;;;;;;;;;;-144.19;58.82;77616.72;5072893;28;20435;-82
2022/04/02 11:59:56;;;;;;;;;;;;;;;-144.19;53.64;77593.09;5073013;28;19929;-82
2022/04/02 12:02:34;;;;;;;;;;;;;;;-144.19;49.19;77492.66;5072492;28;19932;-83
2022/04/02 12:05:04;;;;;;;;;;;;;;;-144.19;50.49;77378.47;5071207;28;20440;-83
2022/04/02 12:07:43;;;;;;;;;;;;;;;-144.19;52.96;77283.97;5071885;28;19925;-84
2022/04/02 12:10:32;;;;;;;;;;;;;;;-144.19;46.62;77429.66;5073982;28;19928;-83
2022/04/02 12:13:07;;;;;;;;;;;;;;;-144.19;47.13;77516.28;5071350;28;19928;-81
2022/04/02 12:15:34;;;;;;;;;;;;;;;-144.19;48.27;77571.44;5077137;22;20020;-82
2022/04/02 12:18:02;;;;;;;;;;;;;;;-144.19;51.77;77530.06;5032219;28;19925;-85
2022/04/02 12:20:36;;;;;;;;;;;;;;;-144.19;49.21;77360.75;5031585;28;20394;-82
2022/04/02 12:23:13;;;;;;;;;;;;;;;-144.19;43.99;77425.72;5032103;28;19925;-83
2022/04/02 12:25:45;;;;;;;;;;;;;;;-144.19;46.26;77370.59;5034003;28;19925;-85
2022/04/02 12:28:15;;;;;;;;;;;;;;;-144.19;45.35;77482.81;5033657;28;19925;-84
2022/04/02 12:30:46;;;;;;;;;;;;;;;-144.19;45.56;77366.66;5033353;28;20021;-83
2022/04/02 12:33:15;;;;;;;;;;;;;;;-144.19;42.39;77378.47;5015520;28;19929;-84
2022/04/02 12:35:54;;;;;;;;;;;;;;;-144.19;43.72;77370.59;5051251;28;19936;-85